Time;durP1;ratioP1;P1;durP2;ratioP2;P2;SDS_P1;SDS_P2;PMS_P1;PMS_P2;Temp;Humidity;BMP_temperature;BMP_pressure;BME280_temperature;BME280_humidity;BME280_pressure;Samples;Min_cycle;Max_cycle;Signal;HPM_P1;HPM_P2
2021/07/12 04:44:44;;;;;;;4.63;3.67;;;13.70;99.90;;;;;;6285207;22;20207;-91
2021/07/12 04:47:11;;;;;;;4.07;3.65;;;13.80;99.90;;;;;;6285557;22;20291;-93
2021/07/12 04:49:38;;;;;;;6.03;4.13;;;13.80;99.90;;;;;;6286583;22;20204;-92
2021/07/12 04:52:05;;;;;;;5.00;4.45;;;13.90;99.90;;;;;;6284824;22;20483;-89
2021/07/12 04:54:32;;;;;;;4.90;4.50;;;14.00;99.90;;;;;;6282847;22;20208;-92
2021/07/12 04:56:59;;;;;;;5.40;4.90;;;14.20;99.90;;;;;;6279190;22;20173;-92
2021/07/12 04:59:27;;;;;;;5.25;4.72;;;14.30;99.90;;;;;;6281590;22;20172;-90
2021/07/12 05:01:56;;;;;;;4.82;4.38;;;14.30;99.90;;;;;;6280455;22;20205;-90
2021/07/12 05:04:23;;;;;;;6.30;4.38;;;14.30;99.90;;;;;;6281133;22;20687;-90
2021/07/12 05:06:50;;;;;;;5.38;4.88;;;14.20;99.90;;;;;;6277824;22;20204;-90
2021/07/12 05:09:17;;;;;;;4.95;4.47;;;14.20;99.90;;;;;;6276822;22;20691;-90
2021/07/12 05:11:44;;;;;;;4.70;4.00;;;14.30;99.90;;;;;;6278784;22;20200;-92
2021/07/12 05:14:11;;;;;;;4.78;4.38;;;14.30;99.90;;;;;;6277673;22;20227;-89
2021/07/12 05:16:40;;;;;;;4.43;3.92;;;14.40;99.90;;;;;;6275826;22;20213;-90
2021/07/12 05:19:09;;;;;;;4.35;3.95;;;14.40;99.90;;;;;;6278113;22;20196;-91
2021/07/12 05:21:37;;;;;;;4.60;4.20;;;14.40;99.90;;;;;;6277746;22;20172;-89
2021/07/12 05:24:04;;;;;;;3.97;3.53;;;14.40;99.90;;;;;;6276604;22;20201;-90
2021/07/12 05:26:31;;;;;;;4.10;3.80;;;14.50;99.90;;;;;;6277223;22;20259;-91
2021/07/12 05:28:58;;;;;;;4.47;4.07;;;14.60;99.90;;;;;;6281402;22;20227;-90
2021/07/12 05:31:25;;;;;;;8.38;4.00;;;14.50;99.90;;;;;;6279605;22;20252;-91
2021/07/12 05:33:52;;;;;;;5.43;3.83;;;14.60;99.90;;;;;;6276260;22;20251;-89
2021/07/12 05:36:22;;;;;;;5.43;4.28;;;14.70;99.90;;;;;;6276948;22;20188;-93
2021/07/12 05:38:55;;;;;;;3.88;3.58;;;14.70;99.90;;;;;;6276741;22;20200;-92
2021/07/12 05:41:22;;;;;;;4.50;4.10;;;14.80;99.90;;;;;;6275017;22;20196;-91
2021/07/12 05:43:55;;;;;;;4.05;3.70;;;14.90;99.90;;;;;;6274870;22;20280;-91
2021/07/12 05:46:22;;;;;;;4.72;4.10;;;15.10;99.90;;;;;;6275782;22;20219;-92
2021/07/12 05:48:51;;;;;;;6.63;4.18;;;15.60;98.60;;;;;;6274899;22;20228;-91
2021/07/12 05:51:18;;;;;;;3.92;3.63;;;15.70;97.10;;;;;;6275717;22;20252;-92
2021/07/12 05:53:46;;;;;;;3.78;3.47;;;16.10;97.20;;;;;;6275948;22;20227;-91
2021/07/12 05:56:13;;;;;;;6.13;3.80;;;16.60;95.50;;;;;;6276425;22;20204;-92
2021/07/12 05:58:40;;;;;;;4.30;3.50;;;16.70;94.60;;;;;;6275093;22;20303;-92
2021/07/12 06:01:07;;;;;;;3.83;3.40;;;16.80;94.30;;;;;;6276707;22;20180;-92
2021/07/12 06:03:34;;;;;;;3.80;3.30;;;16.80;94.20;;;;;;6274998;22;20271;-91
2021/07/12 06:06:01;;;;;;;3.47;3.17;;;16.30;94.20;;;;;;6276352;22;20196;-92
2021/07/12 06:08:28;;;;;;;6.55;3.78;;;15.90;95.40;;;;;;6275524;22;20220;-91
2021/07/12 06:10:57;;;;;;;3.60;3.30;;;15.90;96.30;;;;;;6276279;22;20232;-91
2021/07/12 06:13:24;;;;;;;5.18;3.53;;;15.90;96.70;;;;;;6275810;22;20268;-91
2021/07/12 06:15:51;;;;;;;3.70;3.33;;;15.80;97.10;;;;;;6276270;22;20173;-91
2021/07/12 06:18:18;;;;;;;4.10;3.40;;;15.90;97.10;;;;;;6275106;22;20702;-91
2021/07/12 06:20:45;;;;;;;5.13;3.38;;;15.90;97.10;;;;;;6275578;22;20207;-91
2021/07/12 06:23:13;;;;;;;3.90;3.53;;;15.90;97.10;;;;;;6274756;22;20200;-92
2021/07/12 06:25:39;;;;;;;3.30;3.00;;;16.00;96.60;;;;;;6275448;22;20208;-91
2021/07/12 06:28:10;;;;;;;4.10;3.25;;;16.00;96.40;;;;;;6275687;22;20224;-91
2021/07/12 06:30:37;;;;;;;3.25;2.67;;;16.00;96.80;;;;;;6275846;22;20157;-91
2021/07/12 06:33:04;;;;;;;4.63;2.75;;;16.00;96.80;;;;;;6274698;22;20291;-91
2021/07/12 06:35:31;;;;;;;4.50;2.47;;;16.10;96.10;;;;;;6273434;22;20287;-91
2021/07/12 06:37:58;;;;;;;2.70;2.50;;;16.30;96.40;;;;;;6271876;22;20578;-91
2021/07/12 06:40:26;;;;;;;2.75;1.98;;;16.30;96.40;;;;;;6270981;22;20243;-91
2021/07/12 06:42:53;;;;;;;3.92;2.20;;;16.40;95.70;;;;;;6271960;22;20204;-91
2021/07/12 06:45:21;;;;;;;4.03;2.38;;;16.60;95.50;;;;;;6271671;22;20592;-91
2021/07/12 06:47:49;;;;;;;2.95;2.65;;;16.50;94.70;;;;;;6271535;22;20517;-91
2021/07/12 06:50:16;;;;;;;4.97;2.10;;;16.60;94.90;;;;;;6270732;22;20180;-91
2021/07/12 06:52:43;;;;;;;4.65;2.20;;;16.80;94.90;;;;;;6272010;22;20224;-91
2021/07/12 06:55:10;;;;;;;2.30;2.10;;;16.90;94.70;;;;;;6273052;22;20251;-92
2021/07/12 06:57:37;;;;;;;4.03;2.30;;;17.00;94.60;;;;;;6271816;22;20230;-91
2021/07/12 07:00:06;;;;;;;2.47;2.03;;;17.10;94.20;;;;;;6271893;22;20203;-92
2021/07/12 07:02:35;;;;;;;3.45;2.10;;;17.30;93.30;;;;;;6271888;22;20199;-91
2021/07/12 07:05:02;;;;;;;4.70;2.30;;;17.40;93.10;;;;;;6272385;22;20224;-92
2021/07/12 07:07:29;;;;;;;1.98;1.88;;;17.50;93.30;;;;;;6273202;22;20213;-91
2021/07/12 07:09:56;;;;;;;2.78;1.92;;;17.50;93.40;;;;;;6273957;22;20208;-91
2021/07/12 07:12:23;;;;;;;4.30;2.22;;;17.50;93.50;;;;;;6274330;22;20279;-92
2021/07/12 07:14:50;;;;;;;2.50;2.30;;;17.50;93.00;;;;;;6275354;22;20601;-91
2021/07/12 07:17:17;;;;;;;2.20;2.00;;;17.50;93.00;;;;;;6276349;22;20235;-91
2021/07/12 07:19:47;;;;;;;2.55;2.03;;;17.70;92.70;;;;;;6273765;22;20204;-92
2021/07/12 07:22:14;;;;;;;2.63;2.10;;;18.10;92.20;;;;;;6271286;22;20214;-92
2021/07/12 07:24:41;;;;;;;2.17;2.00;;;18.60;90.80;;;;;;6273035;22;20242;-88
2021/07/12 07:27:09;;;;;;;3.08;2.13;;;19.20;87.30;;;;;;6278038;22;20204;-88
2021/07/12 07:29:35;;;;;;;4.03;2.13;;;19.70;84.20;;;;;;6279342;22;20215;-89
2021/07/12 07:32:03;;;;;;;2.58;2.38;;;19.90;82.00;;;;;;6279940;22;20601;-90
2021/07/12 07:34:30;;;;;;;2.75;1.85;;;20.30;79.70;;;;;;6284318;22;20215;-89
2021/07/12 07:37:01;;;;;;;3.97;2.30;;;21.00;72.70;;;;;;6283218;22;20176;-89
2021/07/12 07:39:48;;;;;;;3.88;2.20;;;21.10;73.50;;;;;;6281834;22;20172;-89
2021/07/12 07:42:15;;;;;;;4.57;1.95;;;20.70;73.50;;;;;;6281848;22;20545;-89
2021/07/12 07:44:42;;;;;;;2.00;1.73;;;20.30;76.60;;;;;;6286970;22;20219;-88
2021/07/12 07:47:11;;;;;;;2.13;1.80;;;20.00;79.20;;;;;;6282694;22;20215;-88
2021/07/12 07:49:38;;;;;;;2.45;1.90;;;19.90;79.00;;;;;;6282927;22;20168;-89
2021/07/12 07:52:07;;;;;;;5.88;2.13;;;19.70;80.60;;;;;;6280232;22;20203;-89
2021/07/12 07:54:36;;;;;;;5.20;1.73;;;19.70;80.60;;;;;;6283390;22;20204;-88
2021/07/12 07:57:03;;;;;;;1.83;1.73;;;19.70;80.60;;;;;;6281893;22;20172;-89
2021/07/12 07:59:30;;;;;;;3.17;1.70;;;19.70;80.60;;;;;;6282098;22;20204;-90
2021/07/12 08:01:57;;;;;;;2.40;1.77;;;19.80;78.50;;;;;;6281320;22;20227;-91
2021/07/12 08:04:24;;;;;;;2.72;1.58;;;20.20;78.20;;;;;;6283761;22;20238;-91
2021/07/12 08:06:52;;;;;;;2.05;1.60;;;20.50;75.00;;;;;;6255600;22;20172;-89
2021/07/12 08:09:20;;;;;;;1.70;1.60;;;20.70;73.30;;;;;;6279402;22;20172;-89
2021/07/12 08:11:48;;;;;;;1.85;1.50;;;20.80;74.10;;;;;;6279325;22;20215;-88
2021/07/12 08:14:15;;;;;;;3.78;2.78;;;20.90;72.40;;;;;;6275887;22;20266;-91
2021/07/12 08:16:42;;;;;;;1.60;1.50;;;21.30;71.30;;;;;;6276640;22;20259;-90
2021/07/12 08:19:09;;;;;;;3.00;1.67;;;21.50;62.70;;;;;;6276027;22;20505;-89
2021/07/12 08:21:36;;;;;;;1.83;1.73;;;21.70;60.90;;;;;;6278175;22;20247;-89
2021/07/12 08:24:03;;;;;;;4.05;1.70;;;21.60;64.10;;;;;;6279643;22;20223;-86
2021/07/12 08:26:31;;;;;;;1.70;1.60;;;23.00;53.70;;;;;;6279299;22;20208;-84
2021/07/12 08:28:58;;;;;;;1.88;1.60;;;24.90;42.50;;;;;;6275832;22;20260;-88
2021/07/12 08:31:25;;;;;;;2.10;1.65;;;26.80;37.80;;;;;;6274711;22;20230;-88
2021/07/12 08:33:53;;;;;;;1.83;1.63;;;28.00;32.70;;;;;;6273417;22;20631;-88
2021/07/12 08:36:20;;;;;;;2.10;1.90;;;29.70;26.50;;;;;;6272955;22;20191;-88
2021/07/12 08:38:47;;;;;;;1.92;1.80;;;30.10;25.40;;;;;;6272590;22;20227;-88
2021/07/12 08:41:14;;;;;;;2.13;1.77;;;31.30;21.20;;;;;;6273479;22;20275;-88
2021/07/12 08:43:42;;;;;;;2.70;1.90;;;31.20;21.80;;;;;;6272255;22;20227;-89
2021/07/12 08:46:10;;;;;;;3.15;2.30;;;31.60;21.20;;;;;;6272584;22;20534;-88
2021/07/12 08:48:37;;;;;;;2.58;2.10;;;30.10;21.80;;;;;;6273941;22;20238;-88
2021/07/12 08:51:04;;;;;;;2.00;1.90;;;30.20;22.90;;;;;;6275810;22;20200;-88
2021/07/12 08:53:31;;;;;;;2.22;2.10;;;31.90;21.10;;;;;;6276876;22;20770;-89
2021/07/12 08:55:58;;;;;;;2.30;2.10;;;33.10;18.20;;;;;;6277981;22;20199;-90
2021/07/12 08:58:27;;;;;;;2.40;2.20;;;33.70;18.50;;;;;;6278106;22;20276;-90
2021/07/12 09:01:00;;;;;;;2.10;2.00;;;34.60;16.20;;;;;;6279094;22;20172;-89
2021/07/12 09:03:32;;;;;;;2.47;2.25;;;33.80;18.00;;;;;;6280710;22;20203;-88
2021/07/12 09:06:10;;;;;;;2.40;2.20;;;33.80;16.10;;;;;;6279706;22;20219;-88
2021/07/12 09:08:54;;;;;;;2.80;2.60;;;33.50;17.00;;;;;;6279381;22;20276;-88
2021/07/12 09:11:32;;;;;;;2.38;2.20;;;31.90;17.50;;;;;;6279664;22;20163;-88
2021/07/12 09:14:01;;;;;;;5.28;2.30;;;33.40;17.30;;;;;;6280205;22;20306;-90
2021/07/12 09:16:41;;;;;;;2.40;2.30;;;34.20;16.30;;;;;;6281179;22;20172;-89
2021/07/12 09:19:12;;;;;;;2.55;2.40;;;34.80;15.20;;;;;;6281278;22;20299;-89
2021/07/12 09:21:42;;;;;;;3.22;2.70;;;34.40;16.50;;;;;;6279390;22;20244;-89
2021/07/12 09:24:28;;;;;;;2.50;2.35;;;33.00;18.10;;;;;;6280899;22;20267;-88
2021/07/12 09:26:57;;;;;;;3.70;2.85;;;34.60;16.30;;;;;;6283334;22;20188;-89
2021/07/12 09:29:26;;;;;;;2.78;2.60;;;35.60;15.80;;;;;;6284243;22;20252;-87
2021/07/12 09:31:55;;;;;;;2.83;2.63;;;35.30;15.90;;;;;;6283302;22;20220;-88
2021/07/12 09:34:23;;;;;;;2.70;2.60;;;34.50;16.90;;;;;;6284387;22;20203;-88
2021/07/12 09:36:51;;;;;;;2.85;2.72;;;34.60;17.20;;;;;;6286615;22;20175;-88
2021/07/12 09:39:20;;;;;;;2.90;2.70;;;35.00;14.90;;;;;;6287285;22;20263;-89
2021/07/12 09:41:48;;;;;;;3.13;2.92;;;35.50;16.00;;;;;;6285441;22;20208;-89
2021/07/12 09:44:17;;;;;;;3.30;3.10;;;35.70;14.60;;;;;;6282917;22;20184;-88
2021/07/12 09:46:44;;;;;;;3.50;2.80;;;35.40;14.00;;;;;;6283888;22;20258;-88
2021/07/12 09:49:15;;;;;;;2.75;2.40;;;34.90;14.50;;;;;;6283448;22;20219;-89
2021/07/12 09:51:43;;;;;;;2.75;2.55;;;34.80;14.50;;;;;;6283610;22;20172;-91
2021/07/12 09:54:21;;;;;;;3.10;2.90;;;34.90;14.20;;;;;;6283287;22;20219;-87
2021/07/12 09:56:50;;;;;;;6.68;3.00;;;34.60;15.40;;;;;;6284258;22;20211;-88
2021/07/12 09:59:17;;;;;;;3.33;3.13;;;35.40;14.70;;;;;;6285066;22;20222;-88
2021/07/12 10:01:50;;;;;;;3.00;2.90;;;36.30;13.70;;;;;;6285573;22;20199;-88
2021/07/12 10:04:19;;;;;;;3.45;2.90;;;36.10;13.40;;;;;;6284362;22;20207;-88
2021/07/12 10:06:48;;;;;;;4.25;2.78;;;34.80;14.80;;;;;;6285066;22;20255;-88
2021/07/12 10:09:17;;;;;;;2.90;2.80;;;35.20;14.60;;;;;;6283229;22;20188;-88
2021/07/12 10:11:44;;;;;;;3.30;3.00;;;35.00;15.10;;;;;;6283544;22;20172;-87
2021/07/12 10:14:12;;;;;;;3.30;3.00;;;34.60;15.10;;;;;;6280860;22;20278;-89
2021/07/12 10:16:39;;;;;;;3.30;3.10;;;34.40;15.20;;;;;;6282016;22;20703;-88
2021/07/12 10:19:06;;;;;;;3.50;3.20;;;33.70;17.30;;;;;;6283090;22;20211;-89
2021/07/12 10:21:50;;;;;;;3.25;2.92;;;34.50;16.30;;;;;;6289630;22;20254;-88
2021/07/12 10:24:20;;;;;;;3.10;2.90;;;35.60;15.90;;;;;;6284687;22;20206;-88
2021/07/12 10:26:53;;;;;;;3.05;2.85;;;35.20;14.10;;;;;;6284296;22;20192;-87
2021/07/12 10:29:29;;;;;;;3.30;3.10;;;35.10;15.10;;;;;;6288827;22;20217;-88
2021/07/12 10:32:04;;;;;;;3.20;3.00;;;34.90;15.30;;;;;;6283376;22;20176;-88
2021/07/12 10:34:35;;;;;;;2.97;2.70;;;35.10;15.70;;;;;;6281358;22;20222;-89
2021/07/12 10:37:06;;;;;;;3.50;2.75;;;34.60;16.00;;;;;;6277510;22;20163;-88
2021/07/12 10:40:14;;;;;;;2.75;2.55;;;34.30;17.60;;;;;;6278923;22;20186;-88
2021/07/12 10:42:51;;;;;;;2.95;2.30;;;32.60;17.90;;;;;;6273711;22;20274;-88
2021/07/12 10:45:19;;;;;;;2.58;2.42;;;34.10;18.70;;;;;;6275119;22;20723;-88
2021/07/12 10:47:48;;;;;;;2.65;2.33;;;32.90;18.10;;;;;;6273870;22;20204;-88
2021/07/12 10:50:37;;;;;;;3.00;2.40;;;30.60;21.20;;;;;;6273932;22;20258;-88
2021/07/12 10:53:33;;;;;;;2.50;2.30;;;32.10;18.30;;;;;;6274028;22;20275;-88
2021/07/12 10:56:08;;;;;;;2.30;2.20;;;32.50;17.80;;;;;;6275311;22;20251;-88
2021/07/12 10:58:43;;;;;;;2.15;2.05;;;32.80;18.10;;;;;;6274715;22;20274;-89
2021/07/12 11:01:15;;;;;;;2.28;2.17;;;32.80;18.00;;;;;;6275451;22;20171;-88
2021/07/12 11:03:44;;;;;;;2.42;2.30;;;33.10;18.10;;;;;;6274632;22;20240;-88
2021/07/12 11:06:12;;;;;;;2.38;2.28;;;31.80;19.00;;;;;;6275843;22;20250;-89
2021/07/12 11:08:53;;;;;;;2.33;2.13;;;32.50;17.90;;;;;;6272947;22;20235;-88
2021/07/12 11:11:39;;;;;;;2.10;2.00;;;32.20;18.90;;;;;;6275619;22;20553;-88
2021/07/12 11:14:06;;;;;;;2.63;2.30;;;31.20;20.10;;;;;;6274962;22;20204;-88
2021/07/12 11:16:38;;;;;;;4.30;1.80;;;30.60;22.50;;;;;;6275264;22;20211;-87
2021/07/12 11:19:24;;;;;;;2.53;1.83;;;29.60;24.70;;;;;;6274759;22;20282;-87
2021/07/12 11:21:52;;;;;;;3.15;2.03;;;28.80;26.80;;;;;;6278561;22;20170;-87
2021/07/12 11:24:22;;;;;;;2.30;2.13;;;28.40;28.00;;;;;;6280414;22;20211;-87
2021/07/12 11:26:52;;;;;;;2.00;1.88;;;28.30;29.80;;;;;;6280658;22;20180;-88
2021/07/12 11:29:37;;;;;;;2.15;1.95;;;28.30;29.40;;;;;;6282209;22;20168;-87
2021/07/12 11:32:37;;;;;;;2.92;2.40;;;28.50;29.00;;;;;;6279065;22;20230;-87
2021/07/12 11:35:07;;;;;;;2.42;2.13;;;28.50;30.20;;;;;;6280833;22;20172;-88
2021/07/12 11:37:35;;;;;;;1.98;1.88;;;28.50;30.10;;;;;;6276950;22;20727;-87
2021/07/12 11:40:04;;;;;;;2.55;1.90;;;28.30;31.20;;;;;;6276500;22;20198;-87
2021/07/12 11:42:33;;;;;;;2.97;2.10;;;28.40;31.60;;;;;;6277430;22;20537;-87
2021/07/12 11:45:03;;;;;;;1.90;1.80;;;28.00;35.80;;;;;;6277733;22;20618;-87
2021/07/12 11:47:32;;;;;;;4.53;2.22;;;28.10;32.90;;;;;;6277259;22;20257;-87
2021/07/12 11:50:02;;;;;;;6.50;2.30;;;28.00;32.00;;;;;;6277465;22;20214;-87
2021/07/12 11:52:30;;;;;;;3.80;2.22;;;27.80;32.70;;;;;;6281242;22;20234;-86
2021/07/12 11:55:19;;;;;;;2.80;2.25;;;27.80;31.20;;;;;;6282819;22;20173;-89
2021/07/12 11:57:49;;;;;;;2.78;2.58;;;27.60;33.20;;;;;;6281516;22;20210;-85
2021/07/12 12:00:18;;;;;;;2.42;2.22;;;27.50;32.90;;;;;;6282612;22;20215;-86
2021/07/12 12:02:45;;;;;;;2.30;2.10;;;27.60;37.90;;;;;;6282955;22;20256;-86
2021/07/12 12:05:15;;;;;;;2.40;2.17;;;27.40;35.70;;;;;;6279990;22;20545;-87
2021/07/12 12:07:45;;;;;;;3.33;2.15;;;27.50;35.20;;;;;;6279726;22;20283;-86
2021/07/12 12:10:20;;;;;;;3.58;1.90;;;27.70;38.00;;;;;;6281687;22;20172;-86
2021/07/12 12:12:49;;;;;;;3.75;2.22;;;27.70;32.80;;;;;;6281169;22;20204;-86
2021/07/12 12:15:19;;;;;;;2.85;1.90;;;27.70;30.30;;;;;;6279457;22;20216;-87
2021/07/12 12:17:50;;;;;;;5.07;2.30;;;27.60;31.30;;;;;;6278483;22;20261;-86
2021/07/12 12:20:20;;;;;;;3.67;2.13;;;27.50;31.90;;;;;;6280045;22;20199;-83
2021/07/12 12:23:08;;;;;;;1.90;1.80;;;27.20;33.70;;;;;;6278273;22;20719;-84
2021/07/12 12:25:49;;;;;;;4.55;2.35;;;27.00;32.10;;;;;;6282290;22;20211;-86
2021/07/12 12:28:32;;;;;;;2.58;2.00;;;27.20;32.90;;;;;;6282526;22;20199;-86
2021/07/12 12:31:02;;;;;;;3.80;1.90;;;27.30;31.80;;;;;;6284856;22;20203;-86
2021/07/12 12:33:31;;;;;;;2.50;1.88;;;27.20;32.60;;;;;;6282576;22;20205;-87
2021/07/12 12:36:00;;;;;;;2.83;1.85;;;27.10;31.70;;;;;;6279597;22;20204;-86
2021/07/12 12:38:27;;;;;;;2.30;2.15;;;26.80;34.20;;;;;;6280046;22;20200;-85
2021/07/12 12:41:02;;;;;;;2.35;2.15;;;26.70;34.00;;;;;;6281382;22;20184;-86
2021/07/12 12:43:29;;;;;;;2.28;2.08;;;26.90;34.50;;;;;;6281535;22;20258;-86
2021/07/12 12:46:00;;;;;;;4.55;1.92;;;27.20;32.50;;;;;;6280222;22;20200;-87
2021/07/12 12:48:35;;;;;;;2.60;2.40;;;27.00;33.50;;;;;;6279467;22;20248;-86
2021/07/12 12:51:25;;;;;;;2.60;2.40;;;27.00;37.40;;;;;;6279816;22;20192;-86
2021/07/12 12:54:09;;;;;;;2.72;2.22;;;26.90;37.40;;;;;;6279368;22;20272;-86
2021/07/12 12:56:46;;;;;;;2.65;2.45;;;26.80;35.70;;;;;;6278232;22;20624;-86
2021/07/12 12:59:13;;;;;;;2.78;2.58;;;26.80;34.40;;;;;;6280326;22;20682;-87
2021/07/12 13:01:43;;;;;;;2.50;2.30;;;26.70;37.30;;;;;;6280656;22;20180;-86
2021/07/12 13:04:15;;;;;;;2.47;2.28;;;26.90;34.80;;;;;;6280268;22;20706;-87
2021/07/12 13:06:51;;;;;;;4.65;2.42;;;26.90;37.40;;;;;;6280059;22;20572;-86
2021/07/12 13:09:26;;;;;;;2.47;2.28;;;26.90;36.30;;;;;;6279893;22;20264;-86
2021/07/12 13:12:06;;;;;;;3.63;2.60;;;26.70;35.80;;;;;;6281536;22;20199;-86
2021/07/12 13:14:33;;;;;;;2.67;2.35;;;26.80;37.40;;;;;;6280775;22;20655;-85
2021/07/12 13:17:05;;;;;;;2.80;2.60;;;26.70;37.30;;;;;;6281749;22;20177;-86
2021/07/12 13:19:32;;;;;;;2.78;2.58;;;26.60;37.20;;;;;;6281942;22;20172;-86
2021/07/12 13:21:59;;;;;;;3.40;2.40;;;26.70;36.10;;;;;;6281906;22;20177;-85
2021/07/12 13:24:43;;;;;;;2.90;2.63;;;26.60;37.20;;;;;;6281441;22;20189;-86
2021/07/12 13:27:29;;;;;;;2.65;2.45;;;26.70;37.30;;;;;;6281819;22;20648;-86
2021/07/12 13:29:56;;;;;;;2.72;2.53;;;26.70;37.30;;;;;;6278353;22;20177;-86
2021/07/12 13:32:23;;;;;;;3.00;2.40;;;26.70;37.30;;;;;;6282308;22;20228;-84
2021/07/12 13:34:53;;;;;;;4.30;2.53;;;26.70;35.90;;;;;;6279197;22;20207;-85
2021/07/12 13:37:20;;;;;;;3.15;2.60;;;26.70;37.30;;;;;;6282466;22;20208;-85
2021/07/12 13:39:47;;;;;;;2.90;2.70;;;26.70;37.30;;;;;;6286265;22;20200;-85
2021/07/12 13:42:15;;;;;;;3.08;2.75;;;26.90;38.50;;;;;;6277119;22;20304;-85
2021/07/12 13:44:42;;;;;;;3.20;2.85;;;26.80;37.20;;;;;;6277648;22;20183;-85
2021/07/12 13:47:11;;;;;;;2.83;2.63;;;26.80;37.40;;;;;;6277552;22;20295;-85
2021/07/12 13:49:38;;;;;;;4.30;2.65;;;26.70;37.40;;;;;;6280038;22;20173;-85
2021/07/12 13:52:05;;;;;;;3.10;2.80;;;26.50;37.20;;;;;;6276636;22;20241;-85
2021/07/12 13:54:33;;;;;;;4.60;2.35;;;26.50;37.20;;;;;;6278714;22;20635;-85
2021/07/12 13:57:00;;;;;;;3.03;2.70;;;26.70;37.30;;;;;;6277267;22;20275;-86
2021/07/12 13:59:28;;;;;;;2.65;2.45;;;26.80;37.40;;;;;;6278497;22;20253;-86
2021/07/12 14:01:55;;;;;;;2.78;2.58;;;26.80;37.40;;;;;;6276280;22;20179;-85
2021/07/12 14:04:22;;;;;;;2.38;2.17;;;26.90;35.40;;;;;;6279088;22;20204;-85
2021/07/12 14:06:49;;;;;;;2.60;2.40;;;26.90;36.70;;;;;;6278517;22;20275;-85
2021/07/12 14:09:16;;;;;;;4.80;2.33;;;26.70;37.30;;;;;;6278524;22;20264;-86
2021/07/12 14:11:43;;;;;;;2.38;2.22;;;26.60;37.20;;;;;;6283855;22;20196;-85
2021/07/12 14:14:10;;;;;;;2.60;2.25;;;26.40;37.10;;;;;;6282835;22;20216;-85
2021/07/12 14:16:39;;;;;;;6.35;2.40;;;26.60;37.20;;;;;;6286330;22;20550;-84
2021/07/12 14:19:05;;;;;;;2.72;2.30;;;26.40;38.40;;;;;;6285936;22;20235;-85
2021/07/12 14:21:33;;;;;;;3.35;2.53;;;26.10;36.90;;;;;;6286767;22;20236;-85
2021/07/12 14:24:03;;;;;;;2.50;2.20;;;26.30;37.00;;;;;;6281908;22;20244;-83
2021/07/12 14:26:30;;;;;;;2.75;2.28;;;26.30;37.00;;;;;;6287648;22;20243;-84
2021/07/12 14:28:56;;;;;;;2.45;2.10;;;26.50;37.20;;;;;;6282655;22;20208;-84
2021/07/12 14:31:42;;;;;;;2.42;2.22;;;26.50;37.20;;;;;;6280027;22;20208;-85
2021/07/12 14:34:15;;;;;;;2.50;2.20;;;26.50;37.20;;;;;;6284187;22;20232;-84
2021/07/12 14:36:42;;;;;;;2.20;2.00;;;26.40;37.80;;;;;;6286180;22;20180;-84
2021/07/12 14:39:09;;;;;;;4.97;2.25;;;26.30;37.00;;;;;;6283338;22;20219;-86
2021/07/12 14:41:37;;;;;;;2.60;2.00;;;26.40;37.10;;;;;;6283077;22;20168;-83
2021/07/12 14:44:04;;;;;;;2.50;2.30;;;26.40;37.10;;;;;;6284842;22;20712;-83
2021/07/12 14:46:31;;;;;;;2.13;1.95;;;26.50;37.20;;;;;;6280080;22;20279;-86
2021/07/12 14:48:59;;;;;;;2.47;2.28;;;26.60;37.30;;;;;;6281892;22;20234;-88
2021/07/12 14:51:26;;;;;;;3.03;2.15;;;26.20;37.00;;;;;;6284456;22;20180;-85
2021/07/12 14:53:54;;;;;;;2.03;1.92;;;26.20;37.00;;;;;;6282466;22;20238;-87
2021/07/12 14:56:21;;;;;;;3.33;2.25;;;26.40;37.20;;;;;;6283405;22;20212;-87
2021/07/12 14:58:48;;;;;;;3.88;2.10;;;25.90;36.80;;;;;;6283612;22;20260;-87
2021/07/12 15:01:16;;;;;;;2.05;1.95;;;25.90;36.80;;;;;;6284406;22;20218;-86
2021/07/12 15:04:15;;;;;;;2.33;2.13;;;26.00;36.80;;;;;;6283295;22;20196;-88
2021/07/12 15:06:42;;;;;;;5.18;2.22;;;26.10;36.90;;;;;;6284699;22;20659;-87
2021/07/12 15:09:09;;;;;;;5.32;2.20;;;26.20;37.90;;;;;;6285781;22;20204;-87
2021/07/12 15:11:37;;;;;;;2.47;2.00;;;26.10;36.90;;;;;;6288171;22;20176;-84
2021/07/12 15:14:04;;;;;;;2.33;2.13;;;26.20;37.00;;;;;;6286700;22;20208;-84
2021/07/12 15:16:31;;;;;;;3.90;1.90;;;26.10;36.90;;;;;;6287085;22;20214;-85
2021/07/12 15:18:59;;;;;;;2.20;2.00;;;26.20;37.00;;;;;;6285501;22;20211;-84
2021/07/12 15:21:27;;;;;;;2.35;2.05;;;26.20;37.00;;;;;;6288765;22;20172;-87
2021/07/12 15:23:54;;;;;;;4.22;2.05;;;26.20;38.10;;;;;;6286169;22;20227;-84
2021/07/12 15:26:21;;;;;;;1.92;1.83;;;26.20;37.00;;;;;;6282222;22;20235;-86
2021/07/12 15:28:49;;;;;;;5.50;2.40;;;26.10;37.00;;;;;;6279872;22;20204;-84
2021/07/12 15:31:16;;;;;;;2.50;2.30;;;26.10;37.00;;;;;;6280937;22;20231;-85
2021/07/12 15:33:42;;;;;;;3.15;2.10;;;26.00;36.80;;;;;;6279157;22;20264;-84
2021/07/12 15:36:17;;;;;;;3.67;2.40;;;25.90;38.80;;;;;;6279885;22;20579;-90
2021/07/12 15:38:46;;;;;;;2.47;2.10;;;25.70;38.20;;;;;;6281303;22;20231;-91
2021/07/12 15:41:16;;;;;;;1.73;1.63;;;25.90;37.00;;;;;;6281709;22;20256;-90
2021/07/12 15:43:43;;;;;;;2.30;2.10;;;25.90;36.80;;;;;;6283501;22;20655;-90
2021/07/12 15:46:10;;;;;;;3.63;2.22;;;26.00;36.80;;;;;;6283166;22;20231;-90
2021/07/12 15:48:43;;;;;;;4.35;2.00;;;26.00;36.80;;;;;;6260715;22;20226;-90
2021/07/12 15:51:10;;;;;;;4.13;1.98;;;26.00;36.80;;;;;;6286654;22;20597;-90
2021/07/12 15:53:37;;;;;;;2.15;1.88;;;25.90;35.80;;;;;;6282269;22;20230;-91
2021/07/12 15:56:12;;;;;;;1.80;1.70;;;25.90;36.80;;;;;;6288537;22;20483;-89
2021/07/12 15:58:39;;;;;;;2.35;1.92;;;25.90;35.80;;;;;;6282763;22;20204;-88
2021/07/12 16:01:14;;;;;;;2.30;1.95;;;25.80;36.70;;;;;;6282804;22;20211;-87
2021/07/12 16:03:44;;;;;;;2.28;2.08;;;25.80;35.90;;;;;;6281739;22;20204;-90
2021/07/12 16:06:11;;;;;;;2.20;2.00;;;25.80;36.70;;;;;;6279650;22;20476;-87
2021/07/12 16:08:38;;;;;;;2.65;2.08;;;25.70;36.70;;;;;;6279716;22;20205;-86
2021/07/12 16:11:06;;;;;;;3.53;1.90;;;25.70;36.70;;;;;;6282044;22;20535;-87
2021/07/12 16:13:35;;;;;;;2.20;2.00;;;25.70;36.70;;;;;;6279614;22;20262;-87
2021/07/12 16:16:02;;;;;;;2.58;2.20;;;25.60;36.60;;;;;;6282432;22;20183;-86
2021/07/12 16:18:29;;;;;;;4.05;2.15;;;25.60;36.60;;;;;;6280502;22;20211;-89
2021/07/12 16:20:56;;;;;;;2.53;2.17;;;25.60;36.60;;;;;;6279967;22;20215;-86
2021/07/12 16:23:23;;;;;;;2.38;2.15;;;25.50;36.50;;;;;;6280666;22;20277;-89
2021/07/12 16:25:50;;;;;;;2.20;2.00;;;25.40;36.40;;;;;;6282786;22;20211;-87
2021/07/12 16:28:18;;;;;;;2.50;2.30;;;25.40;36.40;;;;;;6282392;22;20536;-87
2021/07/12 16:30:49;;;;;;;2.65;2.17;;;25.40;36.40;;;;;;6282385;22;20172;-87
2021/07/12 16:33:17;;;;;;;4.13;2.20;;;25.30;37.30;;;;;;6285451;22;20203;-87
2021/07/12 16:35:44;;;;;;;2.10;2.00;;;25.20;38.40;;;;;;6284567;22;20180;-88
2021/07/12 16:38:11;;;;;;;3.35;2.20;;;25.20;39.00;;;;;;6282933;22;20211;-87
2021/07/12 16:40:38;;;;;;;3.38;2.20;;;25.20;37.70;;;;;;6283455;22;20210;-87
2021/07/12 16:43:05;;;;;;;3.45;2.00;;;25.20;37.50;;;;;;6284763;22;20596;-89
2021/07/12 16:45:32;;;;;;;2.42;2.13;;;25.10;40.10;;;;;;6285963;22;20204;-88
2021/07/12 16:48:01;;;;;;;2.45;2.25;;;25.20;38.80;;;;;;6255628;22;20207;-88
2021/07/12 16:50:28;;;;;;;3.03;2.38;;;25.10;40.30;;;;;;6255615;22;20195;-87
2021/07/12 16:52:55;;;;;;;2.25;2.08;;;25.10;39.30;;;;;;6281778;22;20228;-89
2021/07/12 16:55:22;;;;;;;3.20;2.05;;;25.00;40.00;;;;;;6254300;22;20179;-88
2021/07/12 16:57:49;;;;;;;2.55;2.20;;;25.00;41.40;;;;;;6280679;22;20208;-89
2021/07/12 17:00:16;;;;;;;2.50;2.30;;;24.90;41.30;;;;;;6281790;22;20909;-89
2021/07/12 17:02:43;;;;;;;3.97;2.38;;;24.90;41.90;;;;;;6281424;22;20224;-88
2021/07/12 17:05:13;;;;;;;2.50;2.20;;;24.90;40.90;;;;;;6281838;22;20461;-89
2021/07/12 17:07:41;;;;;;;2.58;2.38;;;24.80;41.50;;;;;;6283587;22;20273;-89
2021/07/12 17:10:13;;;;;;;2.50;2.10;;;24.60;43.80;;;;;;6252395;22;20200;-89
2021/07/12 17:12:40;;;;;;;3.55;2.20;;;24.40;43.80;;;;;;6278607;22;20279;-90
2021/07/12 17:15:11;;;;;;;2.42;2.22;;;24.30;42.80;;;;;;6280424;22;20176;-87
2021/07/12 17:17:39;;;;;;;2.42;2.22;;;24.20;43.60;;;;;;6282288;22;20224;-87
2021/07/12 17:20:09;;;;;;;2.80;2.35;;;24.10;43.40;;;;;;6282549;22;20443;-90
2021/07/12 17:22:39;;;;;;;2.80;2.40;;;24.10;44.10;;;;;;6280926;22;20227;-88
2021/07/12 17:25:07;;;;;;;2.58;2.38;;;24.10;43.00;;;;;;6283712;22;20216;-91
2021/07/12 17:27:35;;;;;;;2.50;2.30;;;24.10;43.50;;;;;;6277954;22;20216;-87
2021/07/12 17:30:02;;;;;;;4.15;2.28;;;24.10;43.20;;;;;;6278171;22;20227;-91
2021/07/12 17:32:29;;;;;;;2.55;2.03;;;24.10;42.90;;;;;;6278195;22;20224;-89
2021/07/12 17:34:56;;;;;;;2.45;2.25;;;24.00;43.40;;;;;;6281810;22;20208;-89
2021/07/12 17:37:23;;;;;;;2.90;2.28;;;24.00;43.90;;;;;;6281221;22;20228;-90
2021/07/12 17:39:51;;;;;;;3.17;2.05;;;23.80;44.20;;;;;;6282216;22;20231;-88
2021/07/12 17:42:18;;;;;;;2.40;2.17;;;23.80;44.60;;;;;;6282935;22;20232;-88
2021/07/12 17:44:46;;;;;;;3.72;2.25;;;23.60;45.20;;;;;;6280044;22;20527;-89